sensor_id;sensor_type;location;lat;lon;timestamp;pressure;altitude;pressure_sealevel;temperature;humidity
65754;BME280;69207;47.502;18.940;2023-05-02T00:00:41;98137.28;;;14.39;41.81
65754;BME280;69207;47.502;18.940;2023-05-02T00:01:45;98131.47;;;14.46;41.84
65754;BME280;69207;47.502;18.940;2023-05-02T00:02:48;98134.34;;;14.48;41.57
65754;BME280;69207;47.502;18.940;2023-05-02T00:03:51;98142.16;;;14.52;41.89
65754;BME280;69207;47.502;18.940;2023-05-02T00:04:55;98137.25;;;14.50;41.99
65754;BME280;69207;47.502;18.940;2023-05-02T00:06:01;98144.94;;;14.52;42.02
65754;BME280;69207;47.502;18.940;2023-05-02T00:07:04;98137.56;;;14.57;41.64
65754;BME280;69207;47.502;18.940;2023-05-02T00:08:07;98132.66;;;14.55;41.86
65754;BME280;69207;47.502;18.940;2023-05-02T00:09:11;98140.22;;;14.55;41.75
65754;BME280;69207;47.502;18.940;2023-05-02T00:10:14;98140.03;;;14.64;41.79
65754;BME280;69207;47.502;18.940;2023-05-02T00:11:17;98137.00;;;14.72;42.22
65754;BME280;69207;47.502;18.940;2023-05-02T00:12:20;98137.91;;;14.76;41.99
65754;BME280;69207;47.502;18.940;2023-05-02T00:13:23;98140.75;;;14.65;42.21
65754;BME280;69207;47.502;18.940;2023-05-02T00:14:26;98133.78;;;14.64;42.65
65754;BME280;69207;47.502;18.940;2023-05-02T00:15:29;98130.62;;;14.56;42.74
65754;BME280;69207;47.502;18.940;2023-05-02T00:16:32;98129.91;;;14.55;42.96
65754;BME280;69207;47.502;18.940;2023-05-02T00:17:35;98129.50;;;14.61;42.77
65754;BME280;69207;47.502;18.940;2023-05-02T00:18:39;98132.38;;;14.63;42.27
65754;BME280;69207;47.502;18.940;2023-05-02T00:19:42;98128.28;;;14.64;42.68
65754;BME280;69207;47.502;18.940;2023-05-02T00:20:45;98137.91;;;14.63;42.72
65754;BME280;69207;47.502;18.940;2023-05-02T00:21:48;98137.41;;;14.66;42.85
65754;BME280;69207;47.502;18.940;2023-05-02T00:22:51;98130.84;;;14.73;42.39
65754;BME280;69207;47.502;18.940;2023-05-02T00:23:55;98132.19;;;14.72;42.34
65754;BME280;69207;47.502;18.940;2023-05-02T00:25:02;98133.78;;;14.64;42.62
65754;BME280;69207;47.502;18.940;2023-05-02T00:26:08;98130.22;;;14.61;42.83
65754;BME280;69207;47.502;18.940;2023-05-02T00:27:11;98138.03;;;14.78;42.29
65754;BME280;69207;47.502;18.940;2023-05-02T00:28:14;98138.47;;;14.87;42.12
65754;BME280;69207;47.502;18.940;2023-05-02T00:29:17;98129.12;;;14.80;42.17
65754;BME280;69207;47.502;18.940;2023-05-02T00:30:20;98128.41;;;14.79;42.49
65754;BME280;69207;47.502;18.940;2023-05-02T00:31:23;98133.44;;;14.83;42.06
65754;BME280;69207;47.502;18.940;2023-05-02T00:32:26;98130.25;;;14.75;42.39
65754;BME280;69207;47.502;18.940;2023-05-02T00:33:29;98131.88;;;14.66;42.87
65754;BME280;69207;47.502;18.940;2023-05-02T00:34:32;98130.22;;;14.61;43.16
65754;BME280;69207;47.502;18.940;2023-05-02T00:35:35;98124.28;;;14.67;42.86
65754;BME280;69207;47.502;18.940;2023-05-02T00:36:38;98130.62;;;14.69;42.58
65754;BME280;69207;47.502;18.940;2023-05-02T00:37:41;98126.44;;;14.68;42.46
65754;BME280;69207;47.502;18.940;2023-05-02T00:38:44;98124.38;;;14.69;42.49
65754;BME280;69207;47.502;18.940;2023-05-02T00:39:47;98131.34;;;14.70;42.50
65754;BME280;69207;47.502;18.940;2023-05-02T00:40:50;98138.63;;;14.63;42.85
65754;BME280;69207;47.502;18.940;2023-05-02T00:41:58;98127.56;;;14.63;42.91
65754;BME280;69207;47.502;18.940;2023-05-02T00:43:01;98124.63;;;14.73;42.69
65754;BME280;69207;47.502;18.940;2023-05-02T00:44:04;98126.03;;;14.74;42.54
65754;BME280;69207;47.502;18.940;2023-05-02T00:45:07;98139.38;;;14.77;42.85
65754;BME280;69207;47.502;18.940;2023-05-02T00:46:10;98135.06;;;14.74;42.96
65754;BME280;69207;47.502;18.940;2023-05-02T00:47:14;98131.03;;;14.64;43.44
65754;BME280;69207;47.502;18.940;2023-05-02T00:48:18;98130.31;;;14.63;43.48
65754;BME280;69207;47.502;18.940;2023-05-02T00:49:23;98131.66;;;14.62;43.00
65754;BME280;69207;47.502;18.940;2023-05-02T00:50:28;98121.81;;;14.59;43.22
65754;BME280;69207;47.502;18.940;2023-05-02T00:51:32;98126.50;;;14.57;43.32
65754;BME280;69207;47.502;18.940;2023-05-02T00:52:36;98127.66;;;14.65;42.91
65754;BME280;69207;47.502;18.940;2023-05-02T00:53:39;98131.16;;;14.66;43.19
65754;BME280;69207;47.502;18.940;2023-05-02T00:54:43;98126.44;;;14.68;43.28
65754;BME280;69207;47.502;18.940;2023-05-02T00:55:46;98134.81;;;14.57;43.45
65754;BME280;69207;47.502;18.940;2023-05-02T00:56:51;98128.56;;;14.56;43.62
65754;BME280;69207;47.502;18.940;2023-05-02T00:57:54;98127.84;;;14.56;43.86
65754;BME280;69207;47.502;18.940;2023-05-02T00:58:58;98131.19;;;14.54;44.04
65754;BME280;69207;47.502;18.940;2023-05-02T01:00:03;98136.47;;;14.62;43.37
65754;BME280;69207;47.502;18.940;2023-05-02T01:01:38;98135.06;;;14.49;43.95
65754;BME280;69207;47.502;18.940;2023-05-02T01:02:52;98141.72;;;14.44;43.79
65754;BME280;69207;47.502;18.940;2023-05-02T01:08:28;98131.00;;;14.50;43.76
65754;BME280;69207;47.502;18.940;2023-05-02T01:11:09;98137.47;;;14.43;43.93
65754;BME280;69207;47.502;18.940;2023-05-02T01:12:36;98132.47;;;14.39;43.84
65754;BME280;69207;47.502;18.940;2023-05-02T01:13:44;98125.63;;;14.40;43.87
65754;BME280;69207;47.502;18.940;2023-05-02T01:14:52;98131.38;;;14.44;45.12
65754;BME280;69207;47.502;18.940;2023-05-02T01:16:00;98133.53;;;14.46;44.80
65754;BME280;69207;47.502;18.940;2023-05-02T01:17:06;98129.09;;;14.41;44.60
65754;BME280;69207;47.502;18.940;2023-05-02T01:18:14;98134.00;;;14.42;44.64
65754;BME280;69207;47.502;18.940;2023-05-02T01:19:48;98132.69;;;14.43;45.17
65754;BME280;69207;47.502;18.940;2023-05-02T01:21:09;98132.97;;;14.36;45.48
65754;BME280;69207;47.502;18.940;2023-05-02T01:22:14;98134.59;;;14.52;45.54
65754;BME280;69207;47.502;18.940;2023-05-02T01:26:16;98122.41;;;14.32;46.10
65754;BME280;69207;47.502;18.940;2023-05-02T01:28:59;98129.19;;;14.43;45.62
65754;BME280;69207;47.502;18.940;2023-05-02T01:30:03;98124.28;;;14.41;45.45
65754;BME280;69207;47.502;18.940;2023-05-02T01:31:08;98128.47;;;14.42;45.40
65754;BME280;69207;47.502;18.940;2023-05-02T01:32:14;98126.22;;;14.39;45.50
65754;BME280;69207;47.502;18.940;2023-05-02T01:33:18;98125.50;;;14.38;45.43
65754;BME280;69207;47.502;18.940;2023-05-02T01:34:24;98126.34;;;14.41;45.80
65754;BME280;69207;47.502;18.940;2023-05-02T01:35:31;98117.94;;;14.39;45.75
65754;BME280;69207;47.502;18.940;2023-05-02T01:36:40;98121.28;;;14.37;45.90
65754;BME280;69207;47.502;18.940;2023-05-02T01:37:45;98120.75;;;14.27;46.40
65754;BME280;69207;47.502;18.940;2023-05-02T01:38:50;98125.34;;;14.22;46.75
65754;BME280;69207;47.502;18.940;2023-05-02T01:39:55;98114.50;;;14.26;46.94
65754;BME280;69207;47.502;18.940;2023-05-02T01:41:00;98117.50;;;14.31;47.06
65754;BME280;69207;47.502;18.940;2023-05-02T01:42:10;98117.50;;;14.31;47.09
65754;BME280;69207;47.502;18.940;2023-05-02T01:43:15;98122.00;;;14.38;47.63
65754;BME280;69207;47.502;18.940;2023-05-02T01:44:21;98118.63;;;14.51;48.24
65754;BME280;69207;47.502;18.940;2023-05-02T01:45:25;98119.44;;;14.53;49.25
65754;BME280;69207;47.502;18.940;2023-05-02T01:46:33;98111.66;;;14.50;49.56
65754;BME280;69207;47.502;18.940;2023-05-02T01:47:38;98118.22;;;14.57;49.21
65754;BME280;69207;47.502;18.940;2023-05-02T01:48:45;98118.09;;;14.55;49.00
65754;BME280;69207;47.502;18.940;2023-05-02T01:49:51;98118.94;;;14.57;48.74
65754;BME280;69207;47.502;18.940;2023-05-02T01:50:56;98112.47;;;14.52;49.21
65754;BME280;69207;47.502;18.940;2023-05-02T01:52:06;98111.13;;;14.53;48.67
65754;BME280;69207;47.502;18.940;2023-05-02T01:53:12;98118.97;;;14.45;48.82
65754;BME280;69207;47.502;18.940;2023-05-02T01:54:18;98116.34;;;14.47;49.02
65754;BME280;69207;47.502;18.940;2023-05-02T01:55:23;98114.28;;;14.48;49.09
65754;BME280;69207;47.502;18.940;2023-05-02T01:56:28;98115.12;;;14.50;49.20
65754;BME280;69207;47.502;18.940;2023-05-02T01:57:35;98112.38;;;14.50;49.24
65754;BME280;69207;47.502;18.940;2023-05-02T01:58:41;98120.66;;;14.50;49.42
65754;BME280;69207;47.502;18.940;2023-05-02T01:59:46;98114.41;;;14.50;49.53
65754;BME280;69207;47.502;18.940;2023-05-02T02:00:50;98104.06;;;14.50;49.81
65754;BME280;69207;47.502;18.940;2023-05-02T02:01:55;98113.44;;;14.45;49.96
65754;BME280;69207;47.502;18.940;2023-05-02T02:02:59;98112.59;;;14.43;50.47
65754;BME280;69207;47.502;18.940;2023-05-02T02:04:04;98112.38;;;14.50;50.18
65754;BME280;69207;47.502;18.940;2023-05-02T02:05:09;98111.69;;;14.64;50.15
65754;BME280;69207;47.502;18.940;2023-05-02T02:06:13;98113.19;;;14.53;50.51
65754;BME280;69207;47.502;18.940;2023-05-02T02:07:17;98107.44;;;14.49;50.74
65754;BME280;69207;47.502;18.940;2023-05-02T02:08:20;98106.59;;;14.46;50.78
65754;BME280;69207;47.502;18.940;2023-05-02T02:09:24;98103.72;;;14.44;50.91
65754;BME280;69207;47.502;18.940;2023-05-02T02:10:31;98113.31;;;14.43;50.97
65754;BME280;69207;47.502;18.940;2023-05-02T02:11:51;98113.31;;;14.43;51.13
65754;BME280;69207;47.502;18.940;2023-05-02T02:13:00;98109.25;;;14.44;51.13
65754;BME280;69207;47.502;18.940;2023-05-02T02:14:11;98100.75;;;14.40;51.28
65754;BME280;69207;47.502;18.940;2023-05-02T02:15:26;98102.47;;;14.34;51.63
65754;BME280;69207;47.502;18.940;2023-05-02T02:16:32;98095.50;;;14.33;51.82
65754;BME280;69207;47.502;18.940;2023-05-02T02:17:42;98100.81;;;14.29;52.12
65754;BME280;69207;47.502;18.940;2023-05-02T02:18:46;98093.00;;;14.25;52.42
65754;BME280;69207;47.502;18.940;2023-05-02T02:19:52;98093.84;;;14.27;52.79
65754;BME280;69207;47.502;18.940;2023-05-02T02:20:58;98104.13;;;14.39;52.88
65754;BME280;69207;47.502;18.940;2023-05-02T02:22:02;98102.25;;;14.30;53.11
65754;BME280;69207;47.502;18.940;2023-05-02T02:23:07;98094.56;;;14.28;53.20
65754;BME280;69207;47.502;18.940;2023-05-02T02:24:11;98092.50;;;14.29;53.25
65754;BME280;69207;47.502;18.940;2023-05-02T02:25:15;98094.56;;;14.28;53.31
65754;BME280;69207;47.502;18.940;2023-05-02T02:26:20;98100.56;;;14.24;53.64
65754;BME280;69207;47.502;18.940;2023-05-02T02:27:23;98097.50;;;14.18;53.87
65754;BME280;69207;47.502;18.940;2023-05-02T02:28:26;98096.03;;;14.43;53.33
65754;BME280;69207;47.502;18.940;2023-05-02T02:29:30;98098.19;;;14.44;53.37
65754;BME280;69207;47.502;18.940;2023-05-02T02:30:33;98098.47;;;14.37;53.61
65754;BME280;69207;47.502;18.940;2023-05-02T02:31:36;98094.22;;;14.47;53.49
65754;BME280;69207;47.502;18.940;2023-05-02T02:32:41;98097.38;;;14.42;53.66
65754;BME280;69207;47.502;18.940;2023-05-02T02:33:44;98092.78;;;14.46;53.80
65754;BME280;69207;47.502;18.940;2023-05-02T02:34:47;98093.03;;;14.50;53.83
65754;BME280;69207;47.502;18.940;2023-05-02T02:35:59;98093.13;;;14.52;53.78
65754;BME280;69207;47.502;18.940;2023-05-02T02:37:17;98098.75;;;14.55;54.11
65754;BME280;69207;47.502;18.940;2023-05-02T02:38:37;98098.44;;;14.48;54.37
65754;BME280;69207;47.502;18.940;2023-05-02T02:40:03;98098.91;;;14.45;54.70
65754;BME280;69207;47.502;18.940;2023-05-02T02:41:15;98093.97;;;14.43;54.73
65754;BME280;69207;47.502;18.940;2023-05-02T02:43:35;98098.31;;;14.46;54.40
65754;BME280;69207;47.502;18.940;2023-05-02T02:44:59;98094.44;;;14.51;54.50
65754;BME280;69207;47.502;18.940;2023-05-02T02:47:40;98095.78;;;14.50;54.63
65754;BME280;69207;47.502;18.940;2023-05-02T02:50:30;98104.00;;;14.62;53.96
65754;BME280;69207;47.502;18.940;2023-05-02T02:51:49;98100.69;;;14.52;54.32
65754;BME280;69207;47.502;18.940;2023-05-02T02:53:13;98097.31;;;14.53;54.51
65754;BME280;69207;47.502;18.940;2023-05-02T02:56:56;98092.00;;;14.58;54.49
65754;BME280;69207;47.502;18.940;2023-05-02T02:58:17;98097.84;;;14.50;54.59
65754;BME280;69207;47.502;18.940;2023-05-02T02:59:28;98099.97;;;14.51;54.35
65754;BME280;69207;47.502;18.940;2023-05-02T03:00:33;98097.84;;;14.64;54.24
65754;BME280;69207;47.502;18.940;2023-05-02T03:01:39;98106.16;;;14.64;54.18
65754;BME280;69207;47.502;18.940;2023-05-02T03:02:45;98102.87;;;14.67;53.77
65754;BME280;69207;47.502;18.940;2023-05-02T03:03:50;98102.97;;;14.56;54.42
65754;BME280;69207;47.502;18.940;2023-05-02T03:04:54;98103.00;;;14.69;53.86
65754;BME280;69207;47.502;18.940;2023-05-02T03:05:58;98109.75;;;14.66;53.83
65754;BME280;69207;47.502;18.940;2023-05-02T03:07:02;98104.81;;;14.65;54.39
65754;BME280;69207;47.502;18.940;2023-05-02T03:08:12;98104.41;;;14.70;53.81
65754;BME280;69207;47.502;18.940;2023-05-02T03:09:15;98107.41;;;14.74;53.64
65754;BME280;69207;47.502;18.940;2023-05-02T03:10:21;98104.84;;;14.78;53.56
65754;BME280;69207;47.502;18.940;2023-05-02T03:11:25;98106.06;;;14.75;53.81
65754;BME280;69207;47.502;18.940;2023-05-02T03:12:30;98105.34;;;14.75;53.67
65754;BME280;69207;47.502;18.940;2023-05-02T03:13:34;98107.22;;;14.84;53.44
65754;BME280;69207;47.502;18.940;2023-05-02T03:14:38;98105.34;;;14.75;53.49
65754;BME280;69207;47.502;18.940;2023-05-02T03:16:53;98108.59;;;14.58;54.67
65754;BME280;69207;47.502;18.940;2023-05-02T03:17:58;98105.53;;;14.65;54.26
65754;BME280;69207;47.502;18.940;2023-05-02T03:19:02;98104.28;;;14.55;54.85
65754;BME280;69207;47.502;18.940;2023-05-02T03:20:05;98108.91;;;14.50;54.88
65754;BME280;69207;47.502;18.940;2023-05-02T03:21:09;98106.94;;;14.52;55.39
65754;BME280;69207;47.502;18.940;2023-05-02T03:22:13;98106.72;;;14.48;55.46
65754;BME280;69207;47.502;18.940;2023-05-02T03:23:16;98103.37;;;14.50;55.11
65754;BME280;69207;47.502;18.940;2023-05-02T03:24:18;98101.50;;;14.55;54.50
65754;BME280;69207;47.502;18.940;2023-05-02T03:25:21;98105.41;;;14.49;54.55
65754;BME280;69207;47.502;18.940;2023-05-02T03:26:24;98113.31;;;14.43;55.04
65754;BME280;69207;47.502;18.940;2023-05-02T03:27:27;98103.50;;;14.40;55.43
65754;BME280;69207;47.502;18.940;2023-05-02T03:28:31;98115.62;;;14.47;55.07
65754;BME280;69207;47.502;18.940;2023-05-02T03:29:35;98099.12;;;14.49;54.88
65754;BME280;69207;47.502;18.940;2023-05-02T03:30:38;98105.44;;;14.38;55.31
65754;BME280;69207;47.502;18.940;2023-05-02T03:31:42;98106.72;;;14.48;54.90
65754;BME280;69207;47.502;18.940;2023-05-02T03:32:45;98105.78;;;14.44;54.79
65754;BME280;69207;47.502;18.940;2023-05-02T03:33:48;98115.50;;;14.45;54.95
65754;BME280;69207;47.502;18.940;2023-05-02T03:34:51;98105.59;;;14.53;54.20
65754;BME280;69207;47.502;18.940;2023-05-02T03:35:54;98112.69;;;14.57;53.95
65754;BME280;69207;47.502;18.940;2023-05-02T03:36:57;98116.66;;;14.53;54.14
65754;BME280;69207;47.502;18.940;2023-05-02T03:38:00;98121.75;;;14.45;54.58
65754;BME280;69207;47.502;18.940;2023-05-02T03:39:03;98119.44;;;14.53;54.10
65754;BME280;69207;47.502;18.940;2023-05-02T03:40:07;98113.31;;;14.43;54.53
65754;BME280;69207;47.502;18.940;2023-05-02T03:41:10;98113.91;;;14.53;54.47
65754;BME280;69207;47.502;18.940;2023-05-02T03:42:13;98121.75;;;14.45;54.78
65754;BME280;69207;47.502;18.940;2023-05-02T03:43:15;98118.13;;;14.43;54.77
65754;BME280;69207;47.502;18.940;2023-05-02T03:44:18;98118.75;;;14.41;54.79
65754;BME280;69207;47.502;18.940;2023-05-02T03:45:22;98113.22;;;14.41;54.72
65754;BME280;69207;47.502;18.940;2023-05-02T03:46:24;98119.37;;;14.40;55.02
65754;BME280;69207;47.502;18.940;2023-05-02T03:47:28;98116.16;;;14.32;55.30
65754;BME280;69207;47.502;18.940;2023-05-02T03:48:32;98119.81;;;14.22;55.65
65754;BME280;69207;47.502;18.940;2023-05-02T03:49:34;98121.75;;;14.45;54.93
65754;BME280;69207;47.502;18.940;2023-05-02T03:50:38;98120.19;;;14.42;54.85
65754;BME280;69207;47.502;18.940;2023-05-02T03:51:41;98113.94;;;14.42;55.37
65754;BME280;69207;47.502;18.940;2023-05-02T03:52:44;98117.06;;;14.48;54.64
65754;BME280;69207;47.502;18.940;2023-05-02T03:53:47;98122.59;;;14.48;54.80
65754;BME280;69207;47.502;18.940;2023-05-02T03:54:50;98120.16;;;14.54;54.44
65754;BME280;69207;47.502;18.940;2023-05-02T03:55:53;98118.97;;;14.45;54.65
65754;BME280;69207;47.502;18.940;2023-05-02T03:56:56;98119.37;;;14.40;55.13
65754;BME280;69207;47.502;18.940;2023-05-02T03:57:59;98130.38;;;14.51;55.20
65754;BME280;69207;47.502;18.940;2023-05-02T03:59:02;98126.19;;;14.50;54.98
65754;BME280;69207;47.502;18.940;2023-05-02T04:00:06;98117.00;;;14.60;54.42
65754;BME280;69207;47.502;18.940;2023-05-02T04:01:13;98124.56;;;14.59;54.69
65754;BME280;69207;47.502;18.940;2023-05-02T04:02:17;98122.72;;;14.50;54.86
65754;BME280;69207;47.502;18.940;2023-05-02T04:03:20;98130.75;;;14.46;55.36
65754;BME280;69207;47.502;18.940;2023-05-02T04:04:24;98125.50;;;14.38;55.73
65754;BME280;69207;47.502;18.940;2023-05-02T04:05:27;98130.31;;;14.38;55.63
65754;BME280;69207;47.502;18.940;2023-05-02T04:06:30;98129.00;;;14.39;55.36
65754;BME280;69207;47.502;18.940;2023-05-02T04:07:34;98120.31;;;14.44;55.04
65754;BME280;69207;47.502;18.940;2023-05-02T04:08:37;98114.78;;;14.44;55.02
65754;BME280;69207;47.502;18.940;2023-05-02T04:09:41;98124.63;;;14.47;54.75
65754;BME280;69207;47.502;18.940;2023-05-02T04:10:44;98124.63;;;14.47;54.91
65754;BME280;69207;47.502;18.940;2023-05-02T04:11:47;98128.59;;;14.44;55.18
65754;BME280;69207;47.502;18.940;2023-05-02T04:12:50;98128.47;;;14.42;55.20
65754;BME280;69207;47.502;18.940;2023-05-02T04:13:53;98120.00;;;14.38;55.12
65754;BME280;69207;47.502;18.940;2023-05-02T04:14:56;98120.41;;;14.46;54.90
65754;BME280;69207;47.502;18.940;2023-05-02T04:15:59;98130.31;;;14.38;55.25
65754;BME280;69207;47.502;18.940;2023-05-02T04:17:02;98126.72;;;14.35;55.67
65754;BME280;69207;47.502;18.940;2023-05-02T04:18:06;98132.97;;;14.36;55.69
65754;BME280;69207;47.502;18.940;2023-05-02T04:19:09;98117.81;;;14.37;55.19
65754;BME280;69207;47.502;18.940;2023-05-02T04:20:13;98125.00;;;14.42;55.07
65754;BME280;69207;47.502;18.940;2023-05-02T04:21:17;98137.06;;;14.35;55.29
65754;BME280;69207;47.502;18.940;2023-05-02T04:22:20;98128.28;;;14.38;55.66
65754;BME280;69207;47.502;18.940;2023-05-02T04:23:23;98133.53;;;14.46;54.61
65754;BME280;69207;47.502;18.940;2023-05-02T04:24:26;98130.66;;;14.44;54.94
65754;BME280;69207;47.502;18.940;2023-05-02T04:25:29;98137.38;;;14.41;54.95
65754;BME280;69207;47.502;18.940;2023-05-02T04:26:32;98132.97;;;14.36;55.25
65754;BME280;69207;47.502;18.940;2023-05-02T04:27:35;98139.22;;;14.36;54.97
65754;BME280;69207;47.502;18.940;2023-05-02T04:28:40;98138.97;;;14.32;55.37
65754;BME280;69207;47.502;18.940;2023-05-02T04:29:43;98135.72;;;14.36;55.51
65754;BME280;69207;47.502;18.940;2023-05-02T04:30:51;98137.00;;;14.46;54.76
65754;BME280;69207;47.502;18.940;2023-05-02T04:31:54;98139.31;;;14.50;55.06
65754;BME280;69207;47.502;18.940;2023-05-02T04:32:57;98141.34;;;14.49;54.54
65754;BME280;69207;47.502;18.940;2023-05-02T04:34:00;98134.34;;;14.48;54.58
65754;BME280;69207;47.502;18.940;2023-05-02T04:35:03;98142.78;;;14.50;54.60
65754;BME280;69207;47.502;18.940;2023-05-02T04:36:08;98146.59;;;14.57;54.22
65754;BME280;69207;47.502;18.940;2023-05-02T04:37:11;98141.69;;;14.69;53.33
65754;BME280;69207;47.502;18.940;2023-05-02T04:38:14;98145.31;;;14.72;53.12
65754;BME280;69207;47.502;18.940;2023-05-02T04:39:17;98148.66;;;14.70;53.25
65754;BME280;69207;47.502;18.940;2023-05-02T04:40:20;98141.53;;;14.79;52.77
65754;BME280;69207;47.502;18.940;2023-05-02T04:41:23;98143.88;;;14.85;52.75
65754;BME280;69207;47.502;18.940;2023-05-02T04:42:26;98142.16;;;14.91;52.42
65754;BME280;69207;47.502;18.940;2023-05-02T04:43:29;98142.56;;;14.86;52.62
65754;BME280;69207;47.502;18.940;2023-05-02T04:44:32;98141.03;;;14.83;53.09
65754;BME280;69207;47.502;18.940;2023-05-02T04:45:35;98143.88;;;14.85;52.91
65754;BME280;69207;47.502;18.940;2023-05-02T04:46:38;98140.09;;;14.78;52.95
65754;BME280;69207;47.502;18.940;2023-05-02T04:47:42;98143.13;;;14.70;53.24
65754;BME280;69207;47.502;18.940;2023-05-02T04:48:45;98148.16;;;14.74;53.57
65754;BME280;69207;47.502;18.940;2023-05-02T04:49:48;98151.03;;;14.76;53.45
65754;BME280;69207;47.502;18.940;2023-05-02T04:50:51;98144.50;;;14.83;52.95
65754;BME280;69207;47.502;18.940;2023-05-02T04:51:57;98153.62;;;14.86;53.11
65754;BME280;69207;47.502;18.940;2023-05-02T04:53:01;98151.16;;;14.78;52.83
65754;BME280;69207;47.502;18.940;2023-05-02T04:54:04;98158.94;;;14.82;53.01
65754;BME280;69207;47.502;18.940;2023-05-02T04:55:07;98161.31;;;14.87;52.68
65754;BME280;69207;47.502;18.940;2023-05-02T04:56:10;98157.09;;;14.86;52.70
65754;BME280;69207;47.502;18.940;2023-05-02T04:57:13;98158.84;;;14.93;52.44
65754;BME280;69207;47.502;18.940;2023-05-02T04:58:16;98160.50;;;14.98;51.99
65754;BME280;69207;47.502;18.940;2023-05-02T04:59:19;98161.19;;;14.85;52.52
65754;BME280;69207;47.502;18.940;2023-05-02T05:00:22;98159.88;;;14.86;52.86
65754;BME280;69207;47.502;18.940;2023-05-02T05:01:25;98155.38;;;14.93;52.14
65754;BME280;69207;47.502;18.940;2023-05-02T05:02:31;98157.41;;;14.92;51.95
65754;BME280;69207;47.502;18.940;2023-05-02T05:03:34;98162.63;;;14.86;52.22
65754;BME280;69207;47.502;18.940;2023-05-02T05:04:38;98152.91;;;14.85;52.31
65754;BME280;69207;47.502;18.940;2023-05-02T05:05:41;98158.75;;;14.91;51.82
65754;BME280;69207;47.502;18.940;2023-05-02T05:06:44;98162.56;;;14.98;51.22
65754;BME280;69207;47.502;18.940;2023-05-02T05:07:50;98168.09;;;14.98;51.49
65754;BME280;69207;47.502;18.940;2023-05-02T05:08:54;98166.25;;;15.02;51.22
65754;BME280;69207;47.502;18.940;2023-05-02T05:09:57;98157.34;;;15.04;51.02
65754;BME280;69207;47.502;18.940;2023-05-02T05:11:00;98171.47;;;15.10;51.11
65754;BME280;69207;47.502;18.940;2023-05-02T05:12:03;98165.22;;;15.10;51.28
65754;BME280;69207;47.502;18.940;2023-05-02T05:13:06;98166.56;;;15.09;51.43
65754;BME280;69207;47.502;18.940;2023-05-02T05:14:09;98169.84;;;15.05;51.32
65754;BME280;69207;47.502;18.940;2023-05-02T05:15:13;98169.72;;;15.03;51.44
65754;BME280;69207;47.502;18.940;2023-05-02T05:16:16;98159.50;;;15.05;51.48
65754;BME280;69207;47.502;18.940;2023-05-02T05:17:20;98158.47;;;15.13;51.14
65754;BME280;69207;47.502;18.940;2023-05-02T05:18:24;98165.44;;;15.14;51.26
65754;BME280;69207;47.502;18.940;2023-05-02T05:19:27;98167.81;;;15.19;50.75
65754;BME280;69207;47.502;18.940;2023-05-02T05:20:30;98164.63;;;15.25;50.51
65754;BME280;69207;47.502;18.940;2023-05-02T05:21:33;98169.25;;;15.20;51.04
65754;BME280;69207;47.502;18.940;2023-05-02T05:22:40;98171.00;;;15.27;51.17
65754;BME280;69207;47.502;18.940;2023-05-02T05:23:43;98178.47;;;15.25;51.54
65754;BME280;69207;47.502;18.940;2023-05-02T05:24:54;98168.53;;;15.20;51.15
65754;BME280;69207;47.502;18.940;2023-05-02T05:25:57;98167.09;;;15.19;51.58
65754;BME280;69207;47.502;18.940;2023-05-02T05:27:01;98165.75;;;15.20;51.66
65754;BME280;69207;47.502;18.940;2023-05-02T05:28:04;98165.97;;;15.24;51.47
65754;BME280;69207;47.502;18.940;2023-05-02T05:29:07;98163.59;;;15.32;50.62
65754;BME280;69207;47.502;18.940;2023-05-02T05:30:11;98169.47;;;15.24;50.70
65754;BME280;69207;47.502;18.940;2023-05-02T05:31:14;98170.28;;;15.27;50.79
65754;BME280;69207;47.502;18.940;2023-05-02T05:32:20;98163.72;;;15.20;51.28
65754;BME280;69207;47.502;18.940;2023-05-02T05:33:23;98168.97;;;15.28;51.52
65754;BME280;69207;47.502;18.940;2023-05-02T05:34:26;98176.25;;;15.21;51.55
65754;BME280;69207;47.502;18.940;2023-05-02T05:35:29;98169.97;;;15.21;51.83
65754;BME280;69207;47.502;18.940;2023-05-02T05:36:33;98175.22;;;15.28;51.65
65754;BME280;69207;47.502;18.940;2023-05-02T05:37:36;98182.56;;;15.24;51.14
65754;BME280;69207;47.502;18.940;2023-05-02T05:38:41;98179.31;;;15.27;50.92
65754;BME280;69207;47.502;18.940;2023-05-02T05:39:44;98182.09;;;15.27;51.28
65754;BME280;69207;47.502;18.940;2023-05-02T05:40:48;98184.75;;;15.39;50.60
65754;BME280;69207;47.502;18.940;2023-05-02T05:41:53;98175.62;;;15.37;50.87
65754;BME280;69207;47.502;18.940;2023-05-02T05:42:56;98189.03;;;15.42;50.75
65754;BME280;69207;47.502;18.940;2023-05-02T05:43:59;98178.50;;;15.39;51.07
65754;BME280;69207;47.502;18.940;2023-05-02T05:45:01;98190.78;;;15.36;51.01
65754;BME280;69207;47.502;18.940;2023-05-02T05:46:05;98183.41;;;15.40;50.45
65754;BME280;69207;47.502;18.940;2023-05-02T05:47:08;98189.34;;;15.48;50.38
65754;BME280;69207;47.502;18.940;2023-05-02T05:48:11;98197.03;;;15.36;50.75
65754;BME280;69207;47.502;18.940;2023-05-02T05:49:14;98187.41;;;15.37;50.70
65754;BME280;69207;47.502;18.940;2023-05-02T05:50:18;98191.31;;;15.46;50.59
65754;BME280;69207;47.502;18.940;2023-05-02T05:51:21;98193.78;;;15.40;50.67
65754;BME280;69207;47.502;18.940;2023-05-02T05:52:24;98200.44;;;15.35;51.19
65754;BME280;69207;47.502;18.940;2023-05-02T05:53:27;98193.88;;;15.42;51.51
65754;BME280;69207;47.502;18.940;2023-05-02T05:54:30;98193.75;;;15.53;50.35
65754;BME280;69207;47.502;18.940;2023-05-02T05:55:32;98197.97;;;15.54;50.69
65754;BME280;69207;47.502;18.940;2023-05-02T05:56:38;98190.41;;;15.55;49.81
65754;BME280;69207;47.502;18.940;2023-05-02T05:57:41;98193.66;;;15.51;50.11
65754;BME280;69207;47.502;18.940;2023-05-02T05:58:44;98197.88;;;15.52;50.52